Time;durP1;ratioP1;P1;durP2;ratioP2;P2;SDS_P1;SDS_P2;PMS_P1;PMS_P2;Temp;Humidity;BMP_temperature;BMP_pressure;BME280_temperature;BME280_humidity;BME280_pressure;Samples;Min_cycle;Max_cycle;Signal;HPM_P1;HPM_P2
2020/12/31 00:00:06;;;;;;;1.35;0.82;;;;;;;17.22;47.40;100249.91;5078296;28;20023;-77
2020/12/31 00:02:31;;;;;;;1.45;0.88;;;;;;;17.20;47.18;100252.53;5096967;28;20470;-76
2020/12/31 00:04:57;;;;;;;0.80;0.65;;;;;;;17.21;47.45;100250.78;5114068;28;20149;-77
2020/12/31 00:07:22;;;;;;;1.05;0.70;;;;;;;17.17;47.20;100247.34;5077590;28;20478;-76
2020/12/31 00:09:48;;;;;;;0.93;0.50;;;;;;;17.19;46.94;100250.81;5084934;28;20478;-69
2020/12/31 00:12:13;;;;;;;1.08;0.70;;;;;;;17.19;47.36;100253.41;5090331;28;20031;-69
2020/12/31 00:14:39;;;;;;;1.80;1.00;;;;;;;17.19;47.35;100255.16;5118136;28;20051;-70
2020/12/31 00:17:04;;;;;;;1.30;0.77;;;;;;;17.14;46.82;100249.97;5087373;28;20043;-69
2020/12/31 00:19:30;;;;;;;1.42;1.17;;;;;;;17.16;47.46;100253.44;5112915;28;20040;-69
2020/12/31 00:21:55;;;;;;;1.65;0.80;;;;;;;17.16;47.26;100258.66;5096723;28;20031;-69
2020/12/31 00:24:21;;;;;;;1.10;0.70;;;;;;;17.15;47.05;100249.09;5094665;28;20421;-69
2020/12/31 00:26:47;;;;;;;1.70;1.13;;;;;;;17.13;47.20;100248.25;5103517;28;20416;-69
2020/12/31 00:29:12;;;;;;;1.40;1.25;;;;;;;17.14;47.05;100248.22;5060593;28;20028;-69
2020/12/31 00:31:38;;;;;;;1.25;0.85;;;;;;;17.14;46.97;100250.84;5078145;28;20481;-70
2020/12/31 00:34:04;;;;;;;1.40;0.80;;;;;;;17.11;47.02;100244.78;5084679;28;20027;-69
2020/12/31 00:36:29;;;;;;;1.60;1.02;;;;;;;17.12;46.94;100246.53;5097414;28;20032;-76
2020/12/31 00:38:55;;;;;;;1.08;0.73;;;;;;;17.12;47.01;100250.00;5082256;28;20023;-76
2020/12/31 00:41:21;;;;;;;1.10;0.80;;;;;;;17.09;47.19;100243.94;5074804;28;20032;-77
2020/12/31 00:43:47;;;;;;;0.57;0.55;;;;;;;17.08;46.82;100243.06;5080529;28;20467;-76
2020/12/31 00:46:13;;;;;;;1.35;0.80;;;;;;;17.08;47.11;100245.69;5108104;28;20030;-76
2020/12/31 00:48:42;;;;;;;0.65;0.50;;;;;;;17.08;47.30;100245.69;5100342;28;20077;-76
2020/12/31 00:51:08;;;;;;;0.80;0.65;;;;;;;17.03;47.35;100238.75;5110347;28;20494;-77
2020/12/31 00:53:33;;;;;;;0.65;0.60;;;;;;;17.06;47.04;100242.19;5095625;28;20050;-77
2020/12/31 00:55:59;;;;;;;1.17;0.80;;;;;;;17.06;47.33;100255.25;5094397;28;20491;-77
2020/12/31 00:58:24;;;;;;;1.63;0.77;;;;;;;17.08;46.84;100250.03;5063456;28;20076;-77
2020/12/31 01:00:50;;;;;;;1.17;0.73;;;;;;;17.09;47.17;100257.00;5096394;28;20110;-78
2020/12/31 01:03:16;;;;;;;1.02;0.60;;;;;;;17.06;46.97;100257.00;5105324;28;20032;-77
2020/12/31 01:05:41;;;;;;;0.95;0.60;;;;;;;17.07;47.22;100253.53;5096465;28;20474;-77
2020/12/31 01:08:06;;;;;;;1.40;0.80;;;;;;;17.06;47.41;100254.41;5109527;28;20038;-77
2020/12/31 01:10:32;;;;;;;1.00;0.55;;;;;;;17.03;47.08;100254.41;5109763;28;20039;-77
2020/12/31 01:12:58;;;;;;;0.98;0.77;;;;;;;17.07;46.97;100253.53;5085207;28;20038;-77
2020/12/31 01:15:23;;;;;;;0.95;0.63;;;;;;;17.06;47.46;100254.41;5080762;28;20040;-78
2020/12/31 01:17:48;;;;;;;1.08;0.63;;;;;;;17.04;47.21;100250.94;5050785;28;20031;-77
2020/12/31 01:20:14;;;;;;;0.85;0.60;;;;;;;17.00;47.10;100247.50;5114834;28;20497;-77
2020/12/31 01:22:39;;;;;;;0.40;0.40;;;;;;;17.05;47.08;100256.16;5093576;28;20375;-77
2020/12/31 01:25:05;;;;;;;1.20;0.80;;;;;;;17.03;47.26;100247.44;5109770;28;20027;-77
2020/12/31 01:27:31;;;;;;;1.10;0.68;;;;;;;17.04;46.87;100248.31;5096642;28;20504;-77
2020/12/31 01:29:57;;;;;;;1.35;0.75;;;;;;;17.03;47.16;100251.81;5114191;28;20047;-76
2020/12/31 01:32:24;;;;;;;0.98;0.60;;;;;;;17.00;47.08;100244.88;5113917;28;20107;-70
2020/12/31 01:34:49;;;;;;;0.70;0.45;;;;;;;17.00;47.10;100252.72;5075648;28;20054;-70
2020/12/31 01:37:19;;;;;;;1.20;0.60;;;;;;;17.12;47.22;100249.13;5110593;28;20075;-77
2020/12/31 01:39:47;;;;;;;0.65;0.57;;;;;;;17.24;46.66;100248.16;5113697;28;20034;-77
2020/12/31 01:42:12;;;;;;;0.60;0.50;;;;;;;17.22;47.07;100237.72;5105697;28;20019;-77
2020/12/31 01:44:38;;;;;;;1.02;0.70;;;;;;;17.25;46.57;100242.06;5099925;28;20035;-77
2020/12/31 01:47:04;;;;;;;1.10;0.60;;;;;;;17.33;46.80;100241.09;5108802;28;20055;-77
2020/12/31 01:49:33;;;;;;;1.00;0.70;;;;;;;17.44;46.22;100243.59;5103854;28;20038;-75
2020/12/31 01:52:00;;;;;;;0.73;0.45;;;;;;;17.39;46.29;100241.03;5105033;28;20038;-77
2020/12/31 01:54:26;;;;;;;0.47;0.47;;;;;;;17.40;46.79;100247.97;5128970;28;20062;-77
2020/12/31 01:56:56;;;;;;;0.47;0.40;;;;;;;17.39;46.18;100233.19;5074737;28;20068;-77
2020/12/31 01:59:22;;;;;;;3.33;0.60;;;;;;;17.53;46.37;100247.88;5110703;28;20019;-77
2020/12/31 02:01:48;;;;;;;0.40;0.32;;;;;;;17.46;46.27;100241.84;5115365;28;20402;-77
2020/12/31 02:04:14;;;;;;;0.52;0.45;;;;;;;17.45;46.39;100243.56;5083163;28;20024;-76
2020/12/31 02:06:40;;;;;;;1.10;0.52;;;;;;;17.50;46.26;100238.31;5106704;28;20177;-76
2020/12/31 02:09:06;;;;;;;0.50;0.40;;;;;;;17.57;46.25;100241.72;5110322;28;20095;-77
2020/12/31 02:11:32;;;;;;;0.50;0.45;;;;;;;17.50;46.52;100236.56;5112512;28;20051;-77
2020/12/31 02:13:57;;;;;;;1.25;0.60;;;;;;;17.52;46.34;100235.69;5106658;28;20022;-76
2020/12/31 02:16:26;;;;;;;0.50;0.50;;;;;;;17.64;46.50;100248.66;5072754;28;20065;-76
2020/12/31 02:18:59;;;;;;;0.82;0.57;;;;;;;17.61;46.10;100244.28;5096082;28;20111;-76
2020/12/31 02:21:28;;;;;;;;;;;;;;;17.58;46.55;100246.06;5118270;28;20055;-77
2020/12/31 02:23:55;;;;;;;1.08;0.52;;;;;;;17.64;46.27;100240.81;5115964;28;20365;-76
2020/12/31 02:26:26;;;;;;;0.60;0.60;;;;;;;17.65;46.37;100234.72;5118357;28;20027;-77
2020/12/31 02:28:53;;;;;;;0.75;0.65;;;;;;;17.61;46.25;100240.81;5117578;28;20027;-76
2020/12/31 02:31:19;;;;;;;0.93;0.50;;;;;;;17.60;46.40;100234.72;5116453;28;20444;-75
2020/12/31 02:33:46;;;;;;;0.40;0.40;;;;;;;17.70;46.44;100222.44;5060347;28;20036;-77
2020/12/31 02:36:16;;;;;;;0.85;0.55;;;;;;;17.63;46.10;100219.03;5097543;28;20044;-77
2020/12/31 02:38:42;;;;;;;0.43;0.30;;;;;;;17.64;46.25;100228.63;5106986;28;20031;-77
2020/12/31 02:41:07;;;;;;;1.02;0.57;;;;;;;17.69;46.40;100224.19;5110419;28;20098;-77
2020/12/31 02:43:34;;;;;;;1.17;0.60;;;;;;;17.71;46.13;100227.66;5069610;28;20398;-76
2020/12/31 02:46:00;;;;;;;0.93;0.63;;;;;;;17.65;46.21;100232.97;5077350;28;20027;-77
2020/12/31 02:48:25;;;;;;;0.70;0.60;;;;;;;17.61;46.24;100231.22;5094169;28;20036;-77
2020/12/31 02:50:51;;;;;;;0.70;0.70;;;;;;;17.54;46.40;100224.31;5096720;28;20038;-69
2020/12/31 02:53:16;;;;;;;0.52;0.47;;;;;;;17.53;46.56;100221.75;5077736;28;20028;-69
2020/12/31 02:55:41;;;;;;;0.60;0.50;;;;;;;17.49;46.66;100218.28;5092104;28;20070;-70
2020/12/31 02:58:07;;;;;;;0.80;0.40;;;;;;;17.45;46.73;100221.81;5110859;28;20031;-69
2020/12/31 03:00:32;;;;;;;0.68;0.57;;;;;;;17.38;46.50;100207.94;5078370;28;20027;-69
2020/12/31 03:02:58;;;;;;;0.77;0.50;;;;;;;17.41;46.71;100212.25;5074988;28;20031;-69
2020/12/31 03:05:23;;;;;;;0.45;0.40;;;;;;;17.35;46.75;100207.09;5091511;28;20034;-69
2020/12/31 03:07:48;;;;;;;0.70;0.70;;;;;;;17.34;46.60;100205.38;5073347;28;20028;-69
2020/12/31 03:10:14;;;;;;;0.60;0.50;;;;;;;17.34;46.94;100208.84;5077789;28;20149;-69
2020/12/31 03:12:39;;;;;;;0.68;0.40;;;;;;;17.33;46.88;100207.13;5061153;28;20040;-76
2020/12/31 03:15:11;;;;;;;0.50;0.50;;;;;;;17.32;47.11;100214.97;5077052;28;20032;-76
2020/12/31 03:17:37;;;;;;;0.70;0.47;;;;;;;17.31;47.03;100208.00;5095313;28;20039;-76
2020/12/31 03:20:04;;;;;;;0.70;0.40;;;;;;;17.31;47.00;100216.72;5106627;28;20031;-76
2020/12/31 03:22:29;;;;;;;1.42;0.60;;;;;;;17.30;47.13;100222.81;5119471;28;20038;-76
2020/12/31 03:24:55;;;;;;;0.88;0.55;;;;;;;17.27;47.00;100220.22;5080698;28;20520;-77
2020/12/31 03:27:20;;;;;;;0.77;0.60;;;;;;;17.27;46.73;100220.22;5116275;28;20027;-77
2020/12/31 03:29:46;;;;;;;0.70;0.50;;;;;;;17.23;47.06;100218.53;5098358;28;20059;-77
2020/12/31 03:32:11;;;;;;;0.30;0.30;;;;;;;17.25;47.05;100214.19;5085931;28;20034;-77
2020/12/31 03:34:37;;;;;;;0.52;0.40;;;;;;;17.24;46.99;100215.06;5116648;28;20069;-76
2020/12/31 03:37:02;;;;;;;0.80;0.65;;;;;;;17.23;46.99;100212.44;5115939;28;20110;-76
2020/12/31 03:39:27;;;;;;;1.13;0.75;;;;;;;17.20;46.98;100212.47;5112369;28;20032;-76
2020/12/31 03:41:53;;;;;;;0.60;0.40;;;;;;;17.23;46.90;100212.44;5092465;28;20070;-77
2020/12/31 03:44:18;;;;;;;0.82;0.65;;;;;;;17.19;46.92;100205.50;5115798;28;20058;-77
2020/12/31 03:46:43;;;;;;;0.77;0.50;;;;;;;17.20;46.81;100215.97;5081730;28;20180;-76
2020/12/31 03:49:08;;;;;;;0.90;0.60;;;;;;;17.17;46.98;100197.69;5116235;28;20023;-76
2020/12/31 03:51:34;;;;;;;0.45;0.45;;;;;;;17.19;46.77;100205.50;5096444;28;20092;-69
2020/12/31 03:53:59;;;;;;;0.70;0.40;;;;;;;17.17;47.09;100205.53;5078057;28;20039;-69
2020/12/31 03:56:25;;;;;;;0.98;0.60;;;;;;;17.15;46.96;100197.69;5115010;28;20128;-69
2020/12/31 03:58:50;;;;;;;1.10;0.63;;;;;;;17.16;47.26;100198.56;5095120;28;20046;-69
2020/12/31 04:01:15;;;;;;;0.55;0.50;;;;;;;17.15;47.28;100194.22;5095242;28;20477;-69
2020/12/31 04:03:40;;;;;;;0.38;0.38;;;;;;;17.12;46.92;100192.53;5079562;28;20071;-69
2020/12/31 04:06:06;;;;;;;0.80;0.70;;;;;;;17.12;46.87;100196.88;5096818;28;20027;-69
2020/12/31 04:08:31;;;;;;;0.65;0.57;;;;;;;17.13;46.59;100194.25;5087379;28;20085;-69
2020/12/31 04:10:56;;;;;;;0.95;0.68;;;;;;;17.11;47.13;100190.78;5078448;28;20032;-77
2020/12/31 04:13:22;;;;;;;0.30;0.30;;;;;;;17.13;47.01;100196.00;5102707;28;20023;-76
2020/12/31 04:15:47;;;;;;;0.60;0.35;;;;;;;17.10;47.03;100191.66;5097793;28;20020;-76
2020/12/31 04:18:12;;;;;;;0.77;0.60;;;;;;;17.11;47.01;100182.09;5094509;28;20080;-77
2020/12/31 04:20:38;;;;;;;0.88;0.50;;;;;;;17.09;46.90;100184.72;5094415;28;20123;-76
2020/12/31 04:23:03;;;;;;;1.40;0.40;;;;;;;17.09;47.02;100181.22;5076718;28;20471;-76
2020/12/31 04:25:28;;;;;;;0.60;0.50;;;;;;;17.09;47.02;100179.50;5079073;28;20032;-76
2020/12/31 04:27:54;;;;;;;0.73;0.60;;;;;;;17.07;47.24;100180.38;5095564;28;20032;-76
2020/12/31 04:30:19;;;;;;;0.93;0.57;;;;;;;17.07;47.09;100169.94;5087124;28;20440;-76
2020/12/31 04:32:44;;;;;;;0.50;0.40;;;;;;;17.07;46.70;100169.94;5103037;28;20128;-76
2020/12/31 04:35:10;;;;;;;1.27;0.70;;;;;;;17.06;46.95;100169.06;5081133;28;20055;-76
2020/12/31 04:37:35;;;;;;;0.73;0.50;;;;;;;17.07;46.92;100169.94;5082865;28;20028;-76
2020/12/31 04:40:00;;;;;;;0.75;0.60;;;;;;;17.05;46.82;100171.69;5082450;28;20034;-77
2020/12/31 04:42:35;;;;;;;0.80;0.60;;;;;;;17.04;47.26;100173.44;5092701;28;20528;-77
2020/12/31 04:45:03;;;;;;;0.82;0.60;;;;;;;17.05;46.90;100169.06;5115198;28;20015;-76
2020/12/31 04:47:35;;;;;;;0.80;0.60;;;;;;;17.04;46.97;100172.56;5111308;28;20537;-77
2020/12/31 04:50:00;;;;;;;1.40;0.70;;;;;;;17.02;46.54;100167.34;5119156;28;20031;-76
2020/12/31 04:52:26;;;;;;;1.50;0.95;;;;;;;17.01;46.85;100167.34;5097361;28;20106;-76
2020/12/31 04:54:52;;;;;;;1.02;0.60;;;;;;;17.09;47.09;100173.41;5097798;28;20042;-76
2020/12/31 04:57:17;;;;;;;1.30;0.50;;;;;;;17.23;46.52;100165.41;5121359;28;20031;-76
2020/12/31 04:59:42;;;;;;;0.80;0.63;;;;;;;17.27;46.78;100164.50;5077906;28;20024;-76
2020/12/31 05:02:08;;;;;;;0.77;0.60;;;;;;;17.22;46.56;100161.06;5115066;28;20039;-76
2020/12/31 05:04:33;;;;;;;0.80;0.55;;;;;;;17.29;46.59;100160.97;5086525;28;20023;-76
2020/12/31 05:06:59;;;;;;;0.50;0.50;;;;;;;17.42;46.14;100162.56;5111515;28;20051;-77
2020/12/31 05:09:24;;;;;;;0.52;0.50;;;;;;;17.40;46.28;100164.34;5076801;28;20453;-76
2020/12/31 05:11:51;;;;;;;2.33;0.82;;;;;;;17.39;46.00;100167.00;5089664;28;20110;-77
2020/12/31 05:14:27;;;;;;;1.30;0.90;;;;;;;17.46;46.18;100169.50;5084301;28;20072;-76
2020/12/31 05:16:53;;;;;;;0.80;0.68;;;;;;;17.53;46.08;100161.63;5092532;28;20035;-76
2020/12/31 05:19:25;;;;;;;0.40;0.40;;;;;;;17.50;46.00;100166.00;5092872;28;20060;-75
2020/12/31 05:22:17;;;;;;;0.77;0.50;;;;;;;17.46;46.36;100158.19;5122449;28;20043;-77
2020/12/31 05:24:50;;;;;;;1.38;0.52;;;;;;;17.55;46.30;100158.06;5097866;28;20030;-76
2020/12/31 05:27:27;;;;;;;1.88;1.02;;;;;;;17.57;46.12;100158.06;5077264;28;20023;-76
2020/12/31 05:29:54;;;;;;;0.80;0.55;;;;;;;17.51;46.03;100156.41;5087696;28;20541;-76
2020/12/31 05:32:24;;;;;;;1.15;0.70;;;;;;;17.60;46.31;100163.25;5093783;28;20096;-76
2020/12/31 05:34:51;;;;;;;0.50;0.40;;;;;;;17.62;46.08;100159.75;5094133;28;20048;-76
2020/12/31 05:37:17;;;;;;;1.13;0.80;;;;;;;17.60;46.16;100165.88;5075547;28;20035;-76
2020/12/31 05:40:06;;;;;;;0.50;0.43;;;;;;;17.59;46.22;100169.38;5101819;28;20471;-76
2020/12/31 05:42:33;;;;;;;0.63;0.45;;;;;;;17.66;46.35;100179.75;5091497;28;20027;-76
2020/12/31 05:45:09;;;;;;;0.43;0.43;;;;;;;17.64;45.96;100178.06;5092261;28;20022;-76
2020/12/31 05:47:44;;;;;;;0.73;0.57;;;;;;;17.60;46.26;100186.78;5112018;28;20378;-76
2020/12/31 05:50:23;;;;;;;0.65;0.50;;;;;;;17.65;46.01;100185.03;5094126;28;20101;-76
2020/12/31 05:52:49;;;;;;;0.70;0.50;;;;;;;17.69;46.20;100197.16;5079936;28;20024;-77
2020/12/31 05:55:16;;;;;;;1.17;0.50;;;;;;;17.61;46.03;100194.63;5095443;28;20016;-76
2020/12/31 05:57:51;;;;;;;0.70;0.50;;;;;;;17.66;46.27;100197.19;5113536;28;20107;-76
2020/12/31 06:00:26;;;;;;;1.17;0.63;;;;;;;17.69;46.02;100197.16;5105193;28;20016;-76
2020/12/31 06:03:00;;;;;;;0.82;0.45;;;;;;;17.64;46.23;100198.97;5111655;28;20388;-76
2020/12/31 06:05:27;;;;;;;0.50;0.40;;;;;;;17.67;46.19;100204.16;5092682;28;20034;-77
2020/12/31 06:07:55;;;;;;;0.43;0.40;;;;;;;17.73;46.10;100204.09;5094987;28;20097;-76
2020/12/31 06:10:26;;;;;;;1.15;0.70;;;;;;;17.73;45.70;100201.47;5110199;28;20031;-76
2020/12/31 06:12:53;;;;;;;0.60;0.40;;;;;;;17.68;46.16;100205.88;5109770;28;20087;-76
2020/12/31 06:15:20;;;;;;;0.95;0.55;;;;;;;17.69;46.31;100203.25;5112765;28;20032;-76
2020/12/31 06:17:47;;;;;;;0.40;0.40;;;;;;;17.75;45.87;100208.44;5094987;28;20030;-76
2020/12/31 06:20:15;;;;;;;0.40;0.40;;;;;;;17.68;46.17;100198.91;5079527;28;20373;-76
2020/12/31 06:22:59;;;;;;;0.77;0.68;;;;;;;17.64;46.31;100205.09;5113044;28;20028;-76
2020/12/31 06:25:46;;;;;;;0.95;0.70;;;;;;;17.59;46.18;100209.44;5103507;28;20370;-76
2020/12/31 06:28:17;;;;;;;0.80;0.43;;;;;;;17.55;46.12;100210.34;5097378;28;20070;-76
2020/12/31 06:30:46;;;;;;;0.68;0.68;;;;;;;17.52;46.34;100213.03;5105517;28;20066;-76
2020/12/31 06:33:16;;;;;;;0.73;0.60;;;;;;;17.49;46.46;100200.84;5110444;28;20028;-76
2020/12/31 06:35:42;;;;;;;0.80;0.70;;;;;;;17.45;46.62;100204.38;5094952;28;20048;-76
2020/12/31 06:38:09;;;;;;;1.05;0.70;;;;;;;17.45;46.49;100201.75;5111935;28;20466;-76
2020/12/31 06:40:35;;;;;;;0.75;0.55;;;;;;;17.44;46.71;100204.38;5110632;28;20032;-76
2020/12/31 06:43:07;;;;;;;0.50;0.40;;;;;;;17.42;46.62;100198.31;5070982;28;20032;-76
2020/12/31 06:45:43;;;;;;;0.63;0.57;;;;;;;17.41;46.70;100205.28;5091385;28;20020;-76
2020/12/31 06:48:26;;;;;;;1.00;0.70;;;;;;;17.39;46.90;100214.03;5109655;28;20154;-76
2020/12/31 06:51:08;;;;;;;0.63;0.60;;;;;;;17.37;46.57;100200.13;5093005;28;20028;-76
2020/12/31 06:53:37;;;;;;;0.40;0.40;;;;;;;17.35;46.60;100202.75;5095192;28;20123;-76
2020/12/31 06:56:07;;;;;;;0.57;0.45;;;;;;;17.34;46.60;100203.63;5094828;28;20374;-76
2020/12/31 06:58:34;;;;;;;0.80;0.50;;;;;;;17.31;46.67;100202.78;5079456;28;20020;-76
2020/12/31 07:01:01;;;;;;;0.75;0.50;;;;;;;17.30;46.44;100219.34;5091868;28;20035;-76
2020/12/31 07:03:41;;;;;;;0.77;0.60;;;;;;;17.31;46.62;100215.84;5106780;28;20043;-76
2020/12/31 07:06:32;;;;;;;0.60;0.40;;;;;;;17.29;47.08;100217.59;5102850;28;20019;-77
2020/12/31 07:09:03;;;;;;;0.73;0.50;;;;;;;17.29;46.71;100215.00;5089164;28;20027;-77
2020/12/31 07:11:29;;;;;;;0.70;0.50;;;;;;;17.29;46.58;100217.59;5088813;28;20477;-70
2020/12/31 07:13:54;;;;;;;0.90;0.70;;;;;;;17.27;46.97;100211.53;5114953;28;20081;-70
2020/12/31 07:16:39;;;;;;;0.90;0.63;;;;;;;17.24;47.02;100207.22;5069434;28;20032;-70
2020/12/31 07:19:06;;;;;;;0.95;0.70;;;;;;;17.24;46.69;100215.06;5104358;28;20024;-70
2020/12/31 07:21:31;;;;;;;2.20;0.73;;;;;;;17.21;46.75;100212.47;5092134;28;20126;-70
2020/12/31 07:23:57;;;;;;;1.08;0.82;;;;;;;17.22;46.47;100219.44;5102288;28;20047;-70
2020/12/31 07:26:26;;;;;;;0.77;0.65;;;;;;;17.22;46.46;100216.81;5080539;28;20032;-70
2020/12/31 07:28:53;;;;;;;1.13;0.70;;;;;;;17.22;46.50;100221.16;5084793;28;20031;-70
2020/12/31 07:31:40;;;;;;;0.80;0.60;;;;;;;17.20;46.55;100226.41;5094955;28;20032;-70
2020/12/31 07:34:20;;;;;;;1.35;0.70;;;;;;;17.19;46.84;100216.84;5104987;28;20047;-70
2020/12/31 07:37:03;;;;;;;1.02;0.65;;;;;;;17.15;46.80;100215.13;5080700;28;20041;-70
2020/12/31 07:39:30;;;;;;;1.08;0.60;;;;;;;17.18;47.00;100225.56;5111906;28;20513;-70
2020/12/31 07:42:17;;;;;;;0.85;0.75;;;;;;;17.15;46.92;100220.34;5091160;28;20039;-69
2020/12/31 07:44:51;;;;;;;0.80;0.65;;;;;;;17.17;46.98;100229.03;5114352;28;20509;-70
2020/12/31 07:47:18;;;;;;;1.48;0.50;;;;;;;17.16;47.08;100237.75;5113947;28;20042;-69
2020/12/31 07:49:45;;;;;;;0.73;0.60;;;;;;;17.12;46.85;100236.94;5084421;28;20035;-70
2020/12/31 07:52:10;;;;;;;0.93;0.50;;;;;;;17.10;46.56;100232.59;5126771;28;20099;-70
2020/12/31 07:54:35;;;;;;;1.17;0.80;;;;;;;17.15;46.44;100233.41;5100373;28;20043;-70
2020/12/31 07:57:03;;;;;;;1.30;0.80;;;;;;;17.10;46.63;100238.69;5120698;28;21771;-70
2020/12/31 07:59:31;;;;;;;0.90;0.70;;;;;;;17.10;47.01;100240.44;5095162;28;20039;-69
2020/12/31 08:02:04;;;;;;;0.70;0.60;;;;;;;17.17;46.97;100249.06;5094095;28;20035;-70
2020/12/31 08:04:30;;;;;;;0.93;0.63;;;;;;;17.28;46.49;100248.09;5113317;28;20103;-69
2020/12/31 08:06:55;;;;;;;1.40;0.90;;;;;;;17.31;46.53;100237.63;5097484;28;20066;-70
2020/12/31 08:09:23;;;;;;;1.05;0.70;;;;;;;17.34;46.43;100242.81;5057450;28;20031;-69
2020/12/31 08:11:52;;;;;;;0.82;0.57;;;;;;;17.36;46.21;100241.06;5099824;28;20032;-70
2020/12/31 08:14:17;;;;;;;1.08;0.80;;;;;;;17.50;45.98;100244.41;5070284;28;20116;-69
2020/12/31 08:16:53;;;;;;;0.90;0.60;;;;;;;17.50;45.69;100249.63;5087588;28;20359;-69
2020/12/31 08:19:19;;;;;;;1.15;0.63;;;;;;;17.45;46.20;100245.31;5094610;28;20036;-69
2020/12/31 08:21:44;;;;;;;0.90;0.70;;;;;;;17.49;46.15;100239.19;5090886;28;20035;-69
2020/12/31 08:24:16;;;;;;;0.75;0.60;;;;;;;17.55;45.90;100226.03;5053594;28;20386;-70
2020/12/31 08:26:55;;;;;;;1.25;0.85;;;;;;;17.54;45.94;100244.34;5110049;28;20027;-70
2020/12/31 08:29:20;;;;;;;0.52;0.52;;;;;;;17.52;45.87;100244.41;5109025;28;20028;-70
2020/12/31 08:31:52;;;;;;;1.05;0.60;;;;;;;17.63;46.05;100254.75;5100138;28;20066;-70
2020/12/31 08:34:25;;;;;;;0.80;0.63;;;;;;;17.62;45.75;100248.63;5104254;28;20031;-70
2020/12/31 08:36:52;;;;;;;0.90;0.73;;;;;;;17.57;45.74;100247.81;5093249;28;20054;-70
2020/12/31 08:39:19;;;;;;;1.20;0.77;;;;;;;17.60;45.98;100247.78;5110761;28;20051;-69
2020/12/31 08:42:01;;;;;;;0.80;0.60;;;;;;;17.68;45.61;100260.78;5106682;28;20490;-70
2020/12/31 08:44:29;;;;;;;0.90;0.73;;;;;;;17.62;45.79;100253.88;5092297;28;20047;-70
2020/12/31 08:46:54;;;;;;;0.60;0.50;;;;;;;17.62;46.28;100253.88;5094674;28;20171;-74
2020/12/31 08:49:24;;;;;;;0.77;0.60;;;;;;;17.68;45.95;100248.59;5085223;28;20140;-69
2020/12/31 08:51:51;;;;;;;0.88;0.60;;;;;;;17.65;45.87;100248.66;5113248;28;20087;-70
2020/12/31 08:54:16;;;;;;;0.88;0.77;;;;;;;17.63;45.96;100253.03;5090521;28;20068;-70
2020/12/31 08:56:42;;;;;;;0.98;0.75;;;;;;;17.67;45.88;100249.47;5114240;28;20504;-70
2020/12/31 08:59:15;;;;;;;1.25;0.68;;;;;;;17.72;45.80;100250.28;5094279;28;20389;-70
2020/12/31 09:01:42;;;;;;;1.40;0.73;;;;;;;17.68;45.79;100250.34;5085081;28;20081;-70
2020/12/31 09:04:20;;;;;;;0.85;0.55;;;;;;;17.68;45.99;100252.94;5090162;28;20035;-70
2020/12/31 09:06:48;;;;;;;1.90;1.13;;;;;;;17.77;45.74;100264.19;5102864;28;20107;-70
2020/12/31 09:09:29;;;;;;;1.27;0.90;;;;;;;17.71;45.59;100255.53;5104380;28;20034;-70
2020/12/31 09:11:57;;;;;;;1.00;0.80;;;;;;;17.69;46.34;100265.16;5095458;28;20024;-70
2020/12/31 09:14:22;;;;;;;1.15;0.88;;;;;;;17.64;45.90;100273.06;5104995;28;20047;-70
2020/12/31 09:16:48;;;;;;;1.13;0.85;;;;;;;17.60;45.86;100271.31;5063257;28;20114;-70
2020/12/31 09:19:13;;;;;;;0.75;0.60;;;;;;;17.57;46.18;100273.97;5084483;28;20064;-70
2020/12/31 09:21:39;;;;;;;0.88;0.60;;;;;;;17.52;46.44;100270.53;5106127;28;20036;-70
2020/12/31 09:24:15;;;;;;;1.15;0.60;;;;;;;17.52;46.02;100278.38;5078043;28;20378;-70
2020/12/31 09:26:50;;;;;;;0.80;0.63;;;;;;;17.46;46.11;100268.84;5116263;28;20043;-70
2020/12/31 09:29:15;;;;;;;1.13;0.70;;;;;;;17.47;46.51;100273.19;5114075;28;20031;-70
2020/12/31 09:31:41;;;;;;;0.82;0.70;;;;;;;17.46;46.54;100283.66;5072239;28;20398;-70
2020/12/31 09:34:06;;;;;;;1.17;0.55;;;;;;;17.45;46.70;100284.53;5079385;28;20028;-70
2020/12/31 09:36:31;;;;;;;0.85;0.70;;;;;;;17.44;46.32;100290.63;5095479;28;20367;-70
2020/12/31 09:38:57;;;;;;;1.20;0.80;;;;;;;17.40;46.38;100289.78;5091862;28;20028;-70
2020/12/31 09:41:22;;;;;;;0.90;0.77;;;;;;;17.41;46.74;100288.03;5094735;28;20061;-70
2020/12/31 09:43:50;;;;;;;1.42;0.75;;;;;;;17.39;46.58;100288.09;5114678;28;20031;-70
2020/12/31 09:46:19;;;;;;;1.45;0.90;;;;;;;17.40;46.62;100295.03;5107906;28;20106;-70
2020/12/31 09:48:46;;;;;;;0.80;0.70;;;;;;;17.37;46.63;100287.22;5093471;28;20027;-70
2020/12/31 09:51:11;;;;;;;0.93;0.73;;;;;;;17.40;46.63;100292.41;5095369;28;20031;-70
2020/12/31 09:53:36;;;;;;;0.70;0.50;;;;;;;17.39;46.79;100293.31;5082935;28;20035;-77
2020/12/31 09:56:02;;;;;;;0.88;0.70;;;;;;;17.36;46.48;100293.34;5094412;28;20108;-77
2020/12/31 09:58:27;;;;;;;1.23;0.98;;;;;;;17.39;46.40;100300.28;5113072;28;20416;-77
2020/12/31 10:00:53;;;;;;;0.98;0.77;;;;;;;17.39;46.54;100300.28;5075571;28;20378;-76
2020/12/31 10:03:18;;;;;;;1.48;0.80;;;;;;;17.35;46.48;100299.44;5086445;28;20031;-77
2020/12/31 10:05:44;;;;;;;0.90;0.73;;;;;;;17.37;46.20;100305.53;5076149;28;20028;-76
2020/12/31 10:08:10;;;;;;;1.80;1.10;;;;;;;17.38;46.70;100304.66;5106291;28;20035;-77
2020/12/31 10:10:35;;;;;;;0.77;0.70;;;;;;;17.37;46.83;100302.03;5105144;28;20035;-77
2020/12/31 10:13:00;;;;;;;1.10;0.80;;;;;;;17.35;46.65;100303.81;5077240;28;20035;-77
2020/12/31 10:15:26;;;;;;;1.10;0.68;;;;;;;17.34;46.26;100302.06;5080265;28;20038;-77
2020/12/31 10:17:51;;;;;;;0.70;0.68;;;;;;;17.30;46.58;100297.72;5095659;28;20027;-77
2020/12/31 10:20:16;;;;;;;0.80;0.50;;;;;;;17.32;46.90;100302.06;5094127;28;20055;-77
2020/12/31 10:22:42;;;;;;;1.30;0.85;;;;;;;17.31;46.84;100300.34;5112941;28;20043;-77
2020/12/31 10:25:07;;;;;;;0.80;0.60;;;;;;;17.29;46.63;100302.09;5075372;28;20016;-77
2020/12/31 10:27:34;;;;;;;1.40;0.80;;;;;;;17.31;46.76;100305.56;5086473;28;20512;-77
2020/12/31 10:30:00;;;;;;;1.20;0.80;;;;;;;17.32;46.59;100309.91;5093126;28;20031;-76
2020/12/31 10:32:25;;;;;;;1.05;0.70;;;;;;;17.29;46.79;100309.06;5096679;28;20371;-77
2020/12/31 10:34:50;;;;;;;0.93;0.70;;;;;;;17.29;46.80;100309.94;5091932;28;20055;-77
2020/12/31 10:37:16;;;;;;;0.73;0.57;;;;;;;17.28;46.59;100309.94;5087952;28;20032;-77
2020/12/31 10:39:41;;;;;;;1.23;0.77;;;;;;;17.27;46.88;100305.59;5067209;28;20024;-77
2020/12/31 10:42:06;;;;;;;0.80;0.70;;;;;;;17.28;46.86;100315.16;5067421;28;20546;-77
2020/12/31 10:44:32;;;;;;;1.20;0.90;;;;;;;17.23;46.80;100312.63;5082066;28;20482;-77
2020/12/31 10:46:57;;;;;;;1.25;0.80;;;;;;;17.21;46.83;100313.50;5113162;28;20107;-77
2020/12/31 10:49:23;;;;;;;0.90;0.63;;;;;;;17.24;46.80;100314.34;5106956;28;20034;-77
2020/12/31 10:51:49;;;;;;;0.95;0.70;;;;;;;17.25;46.82;100315.22;5087162;28;20032;-70
2020/12/31 10:54:14;;;;;;;1.15;0.82;;;;;;;17.26;46.66;100314.34;5091206;28;20489;-70
2020/12/31 10:56:39;;;;;;;1.63;0.80;;;;;;;17.26;46.97;100314.34;5090833;28;20027;-70
2020/12/31 10:59:05;;;;;;;5.10;4.32;;;;;;;17.00;44.02;100312.81;5099935;28;20028;-70
2020/12/31 11:01:30;;;;;;;5.68;4.63;;;;;;;16.35;45.87;100314.03;5109507;28;20108;-70
2020/12/31 11:03:56;;;;;;;6.57;4.40;;;;;;;16.68;45.27;100313.00;5094339;28;20629;-74
2020/12/31 11:06:25;;;;;;;5.80;3.70;;;;;;;16.96;45.04;100304.97;5078196;28;20032;-76
2020/12/31 11:08:51;;;;;;;5.45;3.17;;;;;;;17.13;44.83;100298.75;5092321;28;20489;-76
2020/12/31 11:11:20;;;;;;;6.68;2.83;;;;;;;17.40;44.93;100315.94;5084838;28;20051;-77
2020/12/31 11:13:45;;;;;;;4.32;2.42;;;;;;;17.45;45.08;100310.66;5080827;28;20024;-77
2020/12/31 11:16:11;;;;;;;3.53;2.60;;;;;;;17.62;45.33;100318.38;5090472;28;20095;-78
2020/12/31 11:18:38;;;;;;;5.43;2.42;;;;;;;17.75;45.48;100306.94;5113764;28;20031;-77
2020/12/31 11:21:03;;;;;;;4.88;2.85;;;;;;;17.76;45.84;100306.06;5105021;28;20660;-72
2020/12/31 11:23:29;;;;;;;4.13;2.17;;;;;;;17.71;46.06;100298.25;5096200;28;20115;-71
2020/12/31 11:25:54;;;;;;;4.05;2.42;;;;;;;17.75;46.17;100292.13;5088219;28;20377;-72